Time;durP1;ratioP1;P1;durP2;ratioP2;P2;SDS_P1;SDS_P2;PMS_P1;PMS_P2;Temp;Humidity;BMP_temperature;BMP_pressure;BME280_temperature;BME280_humidity;BME280_pressure;Samples;Min_cycle;Max_cycle;Signal;HPM_P1;HPM_P2
2023/10/21 00:01:58;;;;;;;0.30;0.20;;;24.70;94.90;;;;;;5046428;28;20230;-78
2023/10/21 00:04:23;;;;;;;0.50;0.50;;;24.60;94.90;;;;;;5046851;28;20200;-78
2023/10/21 00:06:49;;;;;;;0.30;0.20;;;24.60;94.90;;;;;;5045177;28;20376;-78
2023/10/21 00:09:15;;;;;;;0.30;0.20;;;24.60;95.00;;;;;;5046545;28;20703;-77
2023/10/21 00:11:40;;;;;;;0.30;0.20;;;24.60;95.00;;;;;;5045004;28;20336;-78
2023/10/21 00:14:06;;;;;;;0.30;0.20;;;24.50;95.00;;;;;;5046921;28;20181;-76
2023/10/21 00:16:32;;;;;;;0.30;0.20;;;24.50;95.10;;;;;;5045088;28;20184;-78
2023/10/21 00:18:58;;;;;;;0.50;0.40;;;24.40;95.10;;;;;;5046484;28;20184;-78
2023/10/21 00:21:23;;;;;;;0.30;0.20;;;24.40;95.10;;;;;;5044769;28;20221;-78
2023/10/21 00:23:49;;;;;;;0.30;0.20;;;24.40;95.20;;;;;;5044980;28;20498;-76
2023/10/21 00:26:16;;;;;;;2.27;2.17;;;24.40;95.20;;;;;;5045912;28;20208;-79
2023/10/21 00:28:42;;;;;;;0.67;0.67;;;24.40;95.20;;;;;;5046001;28;20177;-78
2023/10/21 00:31:08;;;;;;;0.30;0.20;;;24.40;95.20;;;;;;5045850;28;20448;-78
2023/10/21 00:33:33;;;;;;;0.30;0.20;;;24.40;95.30;;;;;;5046496;28;20423;-78
2023/10/21 00:35:59;;;;;;;0.30;0.20;;;24.40;95.30;;;;;;5045969;28;20193;-76
2023/10/21 00:38:25;;;;;;;0.30;0.20;;;24.40;95.30;;;;;;5046111;28;20227;-78
2023/10/21 00:40:55;;;;;;;1.37;1.27;;;24.40;95.30;;;;;;5045898;28;20560;-79
2023/10/21 00:43:31;;;;;;;0.30;0.20;;;24.50;95.40;;;;;;5044743;28;20533;-76
2023/10/21 00:45:56;;;;;;;0.40;0.40;;;24.40;95.40;;;;;;5045965;28;20446;-76
2023/10/21 00:48:23;;;;;;;0.30;0.20;;;24.40;95.50;;;;;;5045990;28;20934;-76
2023/10/21 00:50:49;;;;;;;0.30;0.20;;;24.40;95.50;;;;;;5044802;28;20750;-78
2023/10/21 00:53:14;;;;;;;0.30;0.20;;;24.40;95.50;;;;;;5044480;28;20506;-77
2023/10/21 00:55:40;;;;;;;0.30;0.20;;;24.40;95.50;;;;;;5045663;28;20267;-76
2023/10/21 00:58:06;;;;;;;0.53;0.53;;;24.30;95.60;;;;;;5045954;28;20205;-76
2023/10/21 01:00:32;;;;;;;0.30;0.20;;;24.30;95.70;;;;;;5045852;28;20562;-78
2023/10/21 01:02:57;;;;;;;1.80;1.70;;;24.30;95.70;;;;;;5044432;28;20215;-76
2023/10/21 01:05:23;;;;;;;1.80;1.70;;;24.20;95.80;;;;;;5044349;28;20622;-78
2023/10/21 01:07:48;;;;;;;4.30;4.00;;;24.20;95.80;;;;;;5044368;28;20193;-77
2023/10/21 01:10:14;;;;;;;0.30;0.20;;;24.20;95.80;;;;;;5043962;28;20197;-76
2023/10/21 01:12:40;;;;;;;0.93;0.53;;;24.20;95.80;;;;;;5045499;28;20166;-78
2023/10/21 01:15:07;;;;;;;0.30;0.20;;;24.20;95.90;;;;;;5045765;28;20201;-76
2023/10/21 01:17:32;;;;;;;0.30;0.20;;;24.20;95.80;;;;;;5045325;28;20369;-75
2023/10/21 01:19:59;;;;;;;0.30;0.30;;;24.20;95.80;;;;;;5045487;28;20513;-76
2023/10/21 01:22:24;;;;;;;0.30;0.20;;;24.20;95.80;;;;;;5045137;28;20179;-78
2023/10/21 01:24:50;;;;;;;0.30;0.20;;;24.10;95.90;;;;;;5045590;28;20426;-78
2023/10/21 01:27:16;;;;;;;5.03;1.23;;;24.10;96.00;;;;;;5045341;28;20177;-76
2023/10/21 01:29:41;;;;;;;0.30;0.20;;;24.00;96.00;;;;;;5045100;28;20280;-76
2023/10/21 01:32:07;;;;;;;0.30;0.20;;;24.00;96.00;;;;;;5043911;28;20444;-76
2023/10/21 01:34:33;;;;;;;0.37;0.30;;;24.00;96.10;;;;;;5044373;28;20197;-78
2023/10/21 01:36:59;;;;;;;0.30;0.20;;;23.90;96.10;;;;;;5044993;28;20471;-76
2023/10/21 01:39:25;;;;;;;0.30;0.20;;;23.90;96.10;;;;;;5043900;28;20447;-78
2023/10/21 01:41:50;;;;;;;0.30;0.20;;;23.90;96.10;;;;;;5045668;28;20519;-76
2023/10/21 01:44:16;;;;;;;0.30;0.20;;;23.90;96.20;;;;;;5048517;28;20609;-76
2023/10/21 01:46:42;;;;;;;0.30;0.20;;;23.90;96.20;;;;;;5049361;28;20176;-76
2023/10/21 01:49:07;;;;;;;0.30;0.20;;;23.90;96.20;;;;;;5047982;28;20185;-78
2023/10/21 01:51:33;;;;;;;2.00;1.90;;;23.80;96.20;;;;;;5049167;28;20392;-76
2023/10/21 01:53:59;;;;;;;0.30;0.20;;;23.90;96.30;;;;;;5048337;28;20196;-78
2023/10/21 01:56:24;;;;;;;0.30;0.30;;;23.80;96.30;;;;;;5048506;28;20646;-77
2023/10/21 01:58:50;;;;;;;0.30;0.20;;;23.70;96.40;;;;;;5049240;28;20270;-76
2023/10/21 02:01:16;;;;;;;0.30;0.20;;;23.70;96.40;;;;;;5048807;28;20215;-76
2023/10/21 02:03:41;;;;;;;2.10;1.23;;;23.70;96.50;;;;;;5049159;28;20204;-77
2023/10/21 02:06:08;;;;;;;0.30;0.20;;;23.60;96.60;;;;;;5047149;28;20196;-76
2023/10/21 02:08:34;;;;;;;0.30;0.20;;;23.60;96.70;;;;;;5047576;28;20181;-76
2023/10/21 02:10:59;;;;;;;0.30;0.20;;;23.50;96.80;;;;;;5048261;28;21003;-78
2023/10/21 02:13:25;;;;;;;24.27;6.40;;;23.50;96.90;;;;;;5048786;28;20401;-76
2023/10/21 02:15:51;;;;;;;0.30;0.30;;;23.40;97.00;;;;;;5048779;28;20200;-76
2023/10/21 02:18:17;;;;;;;0.40;0.40;;;23.40;97.00;;;;;;5047415;28;20185;-78
2023/10/21 02:20:43;;;;;;;0.30;0.20;;;23.40;97.10;;;;;;5048447;28;20221;-77
2023/10/21 02:23:09;;;;;;;0.40;0.40;;;23.30;97.10;;;;;;5047120;28;20456;-77
2023/10/21 02:25:34;;;;;;;0.30;0.20;;;23.40;97.20;;;;;;5048237;28;20465;-78
2023/10/21 02:28:01;;;;;;;0.30;0.20;;;23.30;97.20;;;;;;5048595;28;20180;-77
2023/10/21 02:30:27;;;;;;;0.30;0.20;;;23.30;97.20;;;;;;5047947;28;20216;-78
2023/10/21 02:32:53;;;;;;;0.30;0.20;;;23.30;97.30;;;;;;5046762;28;20464;-78
2023/10/21 02:35:18;;;;;;;0.40;0.30;;;23.30;97.30;;;;;;5048442;28;20443;-78
2023/10/21 02:37:45;;;;;;;0.30;0.20;;;23.30;97.30;;;;;;5048152;28;20182;-78
2023/10/21 02:40:20;;;;;;;0.30;0.20;;;23.30;97.30;;;;;;5048090;28;20291;-78
2023/10/21 02:42:45;;;;;;;0.30;0.20;;;23.30;97.30;;;;;;5046740;28;20746;-76
2023/10/21 02:45:11;;;;;;;0.30;0.20;;;23.20;97.30;;;;;;5048362;28;20434;-78
2023/10/21 02:47:37;;;;;;;0.30;0.20;;;23.20;97.50;;;;;;5047831;28;20236;-76
2023/10/21 02:50:04;;;;;;;0.30;0.20;;;23.10;97.50;;;;;;5048020;28;20440;-76
2023/10/21 02:52:30;;;;;;;0.30;0.20;;;23.10;97.50;;;;;;5047658;28;20496;-76
2023/10/21 02:54:55;;;;;;;0.30;0.20;;;23.10;97.50;;;;;;5047989;28;20532;-76
2023/10/21 02:57:21;;;;;;;0.30;0.20;;;23.10;97.50;;;;;;5045545;28;20688;-77
2023/10/21 02:59:47;;;;;;;0.40;0.40;;;23.10;97.60;;;;;;5047732;28;20197;-76
2023/10/21 03:02:13;;;;;;;0.87;0.87;;;23.10;97.60;;;;;;5047557;28;20191;-76
2023/10/21 03:04:39;;;;;;;0.40;0.20;;;23.10;97.60;;;;;;5047865;28;20195;-75
2023/10/21 03:07:05;;;;;;;0.73;0.70;;;23.00;97.60;;;;;;5047603;28;20417;-76
2023/10/21 03:09:31;;;;;;;2.43;0.47;;;23.10;97.70;;;;;;5047733;28;20446;-76
2023/10/21 03:11:56;;;;;;;9.23;2.53;;;23.10;97.70;;;;;;5047841;28;20705;-78
2023/10/21 03:14:22;;;;;;;2.67;1.57;;;23.10;97.70;;;;;;5048107;28;20799;-76
2023/10/21 03:16:48;;;;;;;0.30;0.20;;;23.10;97.70;;;;;;5047845;28;20185;-76
2023/10/21 03:19:14;;;;;;;0.83;0.83;;;23.10;97.80;;;;;;5047541;28;20176;-79
2023/10/21 03:21:40;;;;;;;0.30;0.20;;;23.00;97.80;;;;;;5047466;28;20860;-78
2023/10/21 03:24:06;;;;;;;0.70;0.47;;;23.10;97.90;;;;;;5047280;28;20406;-78
2023/10/21 03:26:32;;;;;;;0.30;0.30;;;23.10;97.90;;;;;;5047041;28;20711;-74
2023/10/21 03:28:57;;;;;;;1.37;0.67;;;23.10;98.20;;;;;;5047373;28;20650;-76
2023/10/21 03:31:23;;;;;;;0.40;0.40;;;23.10;98.00;;;;;;5047003;28;20258;-78
2023/10/21 03:33:49;;;;;;;0.30;0.20;;;23.20;98.00;;;;;;5046198;28;20641;-78
2023/10/21 03:36:14;;;;;;;0.30;0.20;;;23.20;98.10;;;;;;5047192;28;20227;-75
2023/10/21 03:38:42;;;;;;;0.30;0.20;;;23.10;98.20;;;;;;5047325;28;20575;-76
2023/10/21 03:41:09;;;;;;;0.30;0.20;;;23.10;98.20;;;;;;5046816;28;20216;-76
2023/10/21 03:43:35;;;;;;;0.30;0.20;;;23.20;98.30;;;;;;5046946;28;20452;-79
2023/10/21 03:46:04;;;;;;;0.50;0.50;;;23.20;98.30;;;;;;5045269;28;20811;-76
2023/10/21 03:48:30;;;;;;;0.30;0.30;;;23.20;98.40;;;;;;5046967;28;20414;-78
2023/10/21 03:51:06;;;;;;;2.60;2.40;;;23.20;98.40;;;;;;5046755;28;20502;-76
2023/10/21 03:53:34;;;;;;;0.60;0.57;;;23.30;98.40;;;;;;5045288;28;20961;-76
2023/10/21 03:56:01;;;;;;;0.40;0.30;;;23.30;98.30;;;;;;5045369;28;20442;-76
2023/10/21 03:58:26;;;;;;;0.30;0.20;;;23.40;98.30;;;;;;5046365;28;20919;-78
2023/10/21 04:00:54;;;;;;;0.30;0.20;;;23.40;98.30;;;;;;5044771;28;20575;-79
2023/10/21 04:03:20;;;;;;;0.30;0.20;;;23.50;98.40;;;;;;5046854;28;20177;-76
2023/10/21 04:05:45;;;;;;;0.40;0.37;;;23.50;98.40;;;;;;5044667;28;20950;-79
2023/10/21 04:08:11;;;;;;;0.30;0.20;;;23.50;98.40;;;;;;5046900;28;20423;-76
2023/10/21 04:10:37;;;;;;;0.30;0.20;;;23.60;98.40;;;;;;5046315;28;20240;-76
2023/10/21 04:13:03;;;;;;;0.40;0.30;;;23.60;98.40;;;;;;5045328;28;20262;-76
2023/10/21 04:15:31;;;;;;;0.70;0.70;;;23.70;98.40;;;;;;5045292;28;20200;-76
2023/10/21 04:17:56;;;;;;;1.13;1.13;;;23.70;98.70;;;;;;5046384;28;20426;-76
2023/10/21 04:20:22;;;;;;;0.30;0.20;;;23.70;98.40;;;;;;5046570;28;20553;-79
2023/10/21 04:22:48;;;;;;;0.30;0.27;;;23.70;98.40;;;;;;5046045;28;20216;-79
2023/10/21 04:25:14;;;;;;;0.30;0.20;;;23.70;98.30;;;;;;5046437;28;20654;-76
2023/10/21 04:27:39;;;;;;;0.40;0.30;;;23.70;98.30;;;;;;5046168;28;20506;-76
2023/10/21 04:30:07;;;;;;;0.30;0.20;;;23.70;98.40;;;;;;5046132;28;20204;-76
2023/10/21 04:32:33;;;;;;;0.30;0.20;;;23.70;98.30;;;;;;5044488;28;20193;-76
2023/10/21 04:35:00;;;;;;;0.30;0.20;;;23.70;98.30;;;;;;5046166;28;20445;-78
2023/10/21 04:37:26;;;;;;;0.30;0.20;;;23.70;98.20;;;;;;5046100;28;20923;-78
2023/10/21 04:39:53;;;;;;;0.30;0.20;;;23.80;98.20;;;;;;5046281;28;20441;-76
2023/10/21 04:42:19;;;;;;;0.30;0.20;;;23.80;98.20;;;;;;5045696;28;20418;-79
2023/10/21 04:44:44;;;;;;;0.40;0.40;;;23.70;98.20;;;;;;5044649;28;20853;-78
2023/10/21 04:47:12;;;;;;;0.30;0.20;;;23.70;98.20;;;;;;5045616;28;20789;-76
2023/10/21 04:49:38;;;;;;;1.07;1.07;;;23.70;98.30;;;;;;5044273;28;20212;-78
2023/10/21 04:52:04;;;;;;;0.30;0.20;;;23.70;98.30;;;;;;5045726;28;20899;-76
2023/10/21 04:54:29;;;;;;;0.30;0.20;;;23.80;98.20;;;;;;5045931;28;20204;-76
2023/10/21 04:56:55;;;;;;;0.70;0.67;;;23.80;98.30;;;;;;5045852;28;20906;-79
2023/10/21 04:59:21;;;;;;;0.30;0.20;;;23.80;98.30;;;;;;5045776;28;20192;-79
2023/10/21 05:01:46;;;;;;;0.30;0.20;;;23.80;98.30;;;;;;5043340;28;20626;-76
2023/10/21 05:04:12;;;;;;;4.07;3.70;;;23.70;98.40;;;;;;5045910;28;20504;-79
2023/10/21 05:06:37;;;;;;;0.30;0.20;;;23.80;98.50;;;;;;5045906;28;20204;-77
2023/10/21 05:09:03;;;;;;;0.30;0.30;;;23.80;98.50;;;;;;5045906;28;20589;-76
2023/10/21 05:11:30;;;;;;;0.37;0.37;;;23.80;98.50;;;;;;5045316;28;20267;-79
2023/10/21 05:13:56;;;;;;;3.37;2.23;;;23.80;98.60;;;;;;5045590;28;20177;-77
2023/10/21 05:16:22;;;;;;;0.73;0.73;;;23.80;98.50;;;;;;5045549;28;20445;-78
2023/10/21 05:18:48;;;;;;;1.33;0.80;;;23.90;98.70;;;;;;5046600;28;20454;-76
2023/10/21 05:21:14;;;;;;;0.30;0.20;;;23.90;99.00;;;;;;5049296;28;20458;-78
2023/10/21 05:23:40;;;;;;;0.30;0.20;;;23.90;99.20;;;;;;5049548;28;21091;-78
2023/10/21 05:26:06;;;;;;;0.40;0.40;;;24.00;99.40;;;;;;5047899;28;20261;-76
2023/10/21 05:28:31;;;;;;;0.30;0.20;;;24.00;99.40;;;;;;5049421;28;20180;-77
2023/10/21 05:30:57;;;;;;;0.30;0.20;;;24.10;99.60;;;;;;5049174;28;20510;-78
2023/10/21 05:33:23;;;;;;;0.30;0.20;;;24.20;99.70;;;;;;5047940;28;20186;-76
2023/10/21 05:35:49;;;;;;;0.30;0.20;;;24.20;99.90;;;;;;5047942;28;20837;-77
2023/10/21 05:38:15;;;;;;;0.30;0.20;;;24.30;99.90;;;;;;5049341;28;20419;-77
2023/10/21 05:40:45;;;;;;;0.30;0.20;;;24.30;99.90;;;;;;5049122;28;20703;-77
2023/10/21 05:43:10;;;;;;;0.30;0.20;;;24.30;99.90;;;;;;5049337;28;20185;-79
2023/10/21 05:45:36;;;;;;;0.30;0.20;;;24.30;99.90;;;;;;5047805;28;20495;-79
2023/10/21 05:48:02;;;;;;;0.40;0.30;;;24.40;99.90;;;;;;5049395;28;20177;-76
2023/10/21 05:50:27;;;;;;;0.30;0.20;;;24.30;99.90;;;;;;5047957;28;20204;-77
2023/10/21 05:52:53;;;;;;;1.70;0.40;;;24.40;99.90;;;;;;5048827;28;20177;-78
2023/10/21 05:55:19;;;;;;;0.30;0.20;;;24.40;99.90;;;;;;5048833;28;20298;-76
2023/10/21 05:57:45;;;;;;;0.60;0.50;;;24.40;99.90;;;;;;5049118;28;20759;-79
2023/10/21 06:00:12;;;;;;;0.73;0.73;;;24.30;99.90;;;;;;5048713;28;20212;-76
2023/10/21 06:02:37;;;;;;;0.30;0.20;;;24.30;99.90;;;;;;5047062;28;20189;-77
2023/10/21 06:05:05;;;;;;;1.03;0.93;;;24.20;99.90;;;;;;5046701;28;20445;-79
2023/10/21 06:07:31;;;;;;;0.30;0.20;;;24.20;99.90;;;;;;5048457;28;20169;-77
2023/10/21 06:09:57;;;;;;;1.27;1.17;;;24.20;99.90;;;;;;5047324;28;20541;-79
2023/10/21 06:12:23;;;;;;;0.30;0.20;;;24.10;99.90;;;;;;5047232;28;20614;-79
2023/10/21 06:14:50;;;;;;;0.30;0.27;;;24.10;99.90;;;;;;5047508;28;20426;-78
2023/10/21 06:17:16;;;;;;;0.30;0.20;;;24.00;99.90;;;;;;5047242;28;20467;-79
2023/10/21 06:19:43;;;;;;;0.30;0.20;;;24.00;99.90;;;;;;5047369;28;20824;-77
2023/10/21 06:22:11;;;;;;;1.80;1.70;;;24.00;99.90;;;;;;5045822;28;20225;-77
2023/10/21 06:24:37;;;;;;;0.30;0.20;;;23.90;99.90;;;;;;5047509;28;20433;-77
2023/10/21 06:27:04;;;;;;;0.30;0.20;;;23.90;99.90;;;;;;5046916;28;20832;-78
2023/10/21 06:29:30;;;;;;;2.10;2.00;;;23.90;99.90;;;;;;5045651;28;20589;-77
2023/10/21 06:31:56;;;;;;;0.30;0.30;;;23.90;99.90;;;;;;5046979;28;20421;-78
2023/10/21 06:34:21;;;;;;;0.30;0.20;;;23.90;99.90;;;;;;5047250;28;20252;-79
2023/10/21 06:36:47;;;;;;;0.30;0.20;;;23.90;99.90;;;;;;5045701;28;20192;-76
2023/10/21 06:39:13;;;;;;;1.20;1.10;;;23.80;99.90;;;;;;5047047;28;20186;-79
2023/10/21 06:41:38;;;;;;;0.30;0.20;;;23.80;99.90;;;;;;5047215;28;20269;-77
2023/10/21 06:44:05;;;;;;;0.30;0.20;;;23.80;99.90;;;;;;5047020;28;20172;-79
2023/10/21 06:46:30;;;;;;;0.30;0.20;;;23.80;99.90;;;;;;5047248;28;20690;-77
2023/10/21 06:48:56;;;;;;;0.30;0.20;;;23.80;99.90;;;;;;5047040;28;20487;-77
2023/10/21 06:51:21;;;;;;;0.30;0.20;;;23.80;99.90;;;;;;5046657;28;20203;-77
2023/10/21 06:53:47;;;;;;;0.30;0.20;;;23.80;99.90;;;;;;5047117;28;20224;-77
2023/10/21 06:56:13;;;;;;;0.30;0.20;;;23.80;99.90;;;;;;5046860;28;20200;-78
2023/10/21 06:58:40;;;;;;;0.30;0.30;;;23.80;99.90;;;;;;5047104;28;20180;-76
2023/10/21 07:01:06;;;;;;;0.30;0.30;;;23.80;99.90;;;;;;5044967;28;20489;-77
2023/10/21 07:03:32;;;;;;;0.30;0.20;;;23.70;99.90;;;;;;5044752;28;20441;-77
2023/10/21 07:05:58;;;;;;;0.30;0.20;;;23.70;99.90;;;;;;5046232;28;20458;-78
2023/10/21 07:08:24;;;;;;;0.30;0.20;;;23.70;99.90;;;;;;5046876;28;20517;-76
2023/10/21 07:10:52;;;;;;;0.30;0.20;;;23.60;99.90;;;;;;5002383;28;1270420;-76
2023/10/21 07:13:19;;;;;;;0.30;0.20;;;23.60;99.90;;;;;;5047739;28;20657;-78
2023/10/21 07:15:44;;;;;;;0.30;0.20;;;23.60;99.90;;;;;;5047763;28;20813;-77
2023/10/21 07:18:10;;;;;;;0.30;0.20;;;23.60;99.90;;;;;;5047832;28;20432;-78
2023/10/21 07:20:36;;;;;;;0.40;0.40;;;23.70;99.90;;;;;;5047465;28;20316;-77
2023/10/21 07:23:02;;;;;;;0.30;0.20;;;23.70;99.90;;;;;;5046997;28;20520;-79
2023/10/21 07:25:28;;;;;;;0.30;0.20;;;23.70;99.90;;;;;;5045705;28;20188;-76
2023/10/21 07:27:54;;;;;;;0.30;0.20;;;23.70;99.90;;;;;;5047203;28;20441;-77
2023/10/21 07:30:23;;;;;;;0.30;0.20;;;23.70;99.90;;;;;;5047248;28;20532;-78
2023/10/21 07:32:49;;;;;;;0.30;0.20;;;23.70;99.90;;;;;;5046871;28;20651;-77
2023/10/21 07:35:16;;;;;;;0.50;0.47;;;23.70;99.90;;;;;;5047222;28;20486;-76
2023/10/21 07:37:44;;;;;;;0.67;0.67;;;23.70;99.90;;;;;;5047053;28;20405;-78
2023/10/21 07:40:11;;;;;;;0.30;0.20;;;23.70;99.90;;;;;;5045750;28;20449;-79
2023/10/21 07:42:37;;;;;;;0.30;0.20;;;23.70;99.90;;;;;;5046435;28;20422;-77
2023/10/21 07:45:06;;;;;;;0.30;0.20;;;23.70;99.90;;;;;;5046673;28;20440;-79
2023/10/21 07:47:37;;;;;;;0.63;0.63;;;23.70;99.90;;;;;;5045832;28;20187;-79
2023/10/21 07:50:07;;;;;;;1.50;0.73;;;23.60;99.90;;;;;;5046722;28;20432;-79
2023/10/21 07:52:37;;;;;;;0.30;0.20;;;23.60;99.90;;;;;;5046852;28;20925;-79
2023/10/21 07:55:03;;;;;;;0.30;0.20;;;23.70;99.90;;;;;;5045010;28;20976;-79
2023/10/21 07:57:30;;;;;;;0.30;0.20;;;23.70;99.90;;;;;;5046033;28;20444;-77
2023/10/21 08:00:00;;;;;;;0.30;0.20;;;23.70;99.90;;;;;;5047091;28;20532;-77
2023/10/21 08:02:26;;;;;;;0.30;0.20;;;23.70;99.90;;;;;;5045713;28;20942;-79
2023/10/21 08:04:52;;;;;;;0.30;0.20;;;23.70;99.90;;;;;;5044181;28;20528;-77
2023/10/21 08:07:21;;;;;;;0.40;0.40;;;23.70;99.90;;;;;;5042686;28;20253;-79
2023/10/21 08:09:47;;;;;;;0.30;0.20;;;23.70;99.90;;;;;;5043573;28;20575;-79
2023/10/21 08:12:13;;;;;;;0.30;0.20;;;23.70;99.90;;;;;;5043400;28;20464;-77
2023/10/21 08:14:40;;;;;;;0.40;0.40;;;23.70;99.90;;;;;;5042414;28;20757;-77
2023/10/21 08:17:07;;;;;;;0.30;0.20;;;23.60;99.90;;;;;;5043397;28;20434;-79
2023/10/21 08:19:34;;;;;;;0.30;0.20;;;23.60;99.90;;;;;;5043261;28;20446;-80
2023/10/21 08:22:01;;;;;;;0.30;0.20;;;23.60;99.90;;;;;;5042915;28;20492;-78
2023/10/21 08:24:27;;;;;;;0.30;0.20;;;23.60;99.90;;;;;;5044462;28;20571;-79
2023/10/21 08:26:53;;;;;;;0.73;0.73;;;23.60;99.90;;;;;;5044751;28;20912;-77
2023/10/21 08:29:20;;;;;;;0.30;0.30;;;23.50;99.90;;;;;;5046203;28;20497;-79
2023/10/21 08:31:48;;;;;;;0.30;0.30;;;23.50;99.90;;;;;;5044790;28;20784;-79
2023/10/21 08:34:14;;;;;;;0.30;0.20;;;23.50;99.90;;;;;;5046229;28;20437;-79
2023/10/21 08:36:41;;;;;;;0.30;0.20;;;23.50;99.90;;;;;;5046472;28;20413;-77
2023/10/21 08:39:07;;;;;;;0.30;0.20;;;23.50;99.90;;;;;;5045203;28;20185;-77
2023/10/21 08:41:39;;;;;;;0.30;0.20;;;23.60;99.90;;;;;;5044826;28;20559;-78
2023/10/21 08:44:11;;;;;;;0.30;0.20;;;23.60;99.90;;;;;;5045502;28;21032;-78
2023/10/21 08:46:37;;;;;;;0.30;0.20;;;23.70;99.90;;;;;;5046313;28;20801;-77
2023/10/21 08:49:05;;;;;;;0.60;0.30;;;23.70;99.90;;;;;;5045977;28;20443;-77
2023/10/21 08:51:35;;;;;;;0.30;0.20;;;23.70;99.90;;;;;;5044661;28;20425;-78
2023/10/21 08:54:05;;;;;;;0.30;0.20;;;23.70;99.90;;;;;;5046315;28;20409;-77
2023/10/21 08:56:35;;;;;;;0.30;0.30;;;23.80;99.90;;;;;;5046551;28;20454;-76
2023/10/21 08:59:01;;;;;;;0.40;0.40;;;23.80;99.90;;;;;;5046349;28;20899;-79
2023/10/21 09:01:27;;;;;;;0.30;0.20;;;23.80;99.90;;;;;;5044780;28;20472;-79
2023/10/21 09:03:53;;;;;;;0.30;0.20;;;23.90;99.90;;;;;;5046035;28;20803;-79
2023/10/21 09:06:19;;;;;;;0.30;0.20;;;23.90;99.90;;;;;;5043393;28;20551;-78
2023/10/21 09:08:47;;;;;;;0.77;0.77;;;23.90;99.90;;;;;;5046863;28;20433;-79
2023/10/21 09:11:33;;;;;;;0.30;0.20;;;24.00;99.90;;;;;;5045994;28;20235;-76
2023/10/21 09:13:59;;;;;;;0.30;0.20;;;23.90;99.90;;;;;;5045829;28;20461;-80
2023/10/21 09:16:30;;;;;;;2.30;2.20;;;23.90;99.90;;;;;;5044232;28;20446;-79
2023/10/21 09:18:57;;;;;;;0.30;0.30;;;24.00;99.90;;;;;;5045053;28;20219;-78
2023/10/21 09:21:41;;;;;;;0.30;0.20;;;24.00;99.90;;;;;;5044515;28;20513;-76
2023/10/21 09:24:10;;;;;;;0.30;0.20;;;24.00;99.90;;;;;;5044289;28;20458;-75
2023/10/21 09:26:43;;;;;;;0.30;0.20;;;24.00;99.90;;;;;;5046100;28;20433;-78
2023/10/21 09:29:13;;;;;;;0.30;0.20;;;24.00;99.90;;;;;;5045477;28;20395;-76
2023/10/21 09:31:56;;;;;;;0.30;0.20;;;24.00;99.90;;;;;;5044502;28;20434;-76
2023/10/21 09:34:30;;;;;;;0.30;0.20;;;24.00;99.90;;;;;;5044015;28;20537;-79
2023/10/21 09:37:03;;;;;;;0.30;0.20;;;24.00;99.90;;;;;;5045751;28;20529;-79
2023/10/21 09:39:38;;;;;;;0.30;0.20;;;24.00;99.90;;;;;;5046237;28;20450;-78
2023/10/21 09:42:05;;;;;;;0.30;0.20;;;24.00;99.90;;;;;;5044860;28;20508;-79
2023/10/21 09:44:38;;;;;;;0.30;0.20;;;24.00;99.90;;;;;;5045485;28;20960;-80
2023/10/21 09:47:08;;;;;;;0.30;0.20;;;24.00;99.90;;;;;;5043774;28;20518;-78
2023/10/21 09:49:38;;;;;;;0.30;0.20;;;24.00;99.90;;;;;;5044225;28;20426;-78
2023/10/21 09:52:07;;;;;;;0.30;0.20;;;24.00;99.90;;;;;;5043293;28;20456;-78
2023/10/21 09:55:01;;;;;;;0.30;0.20;;;24.00;99.90;;;;;;5044614;28;20430;-79
2023/10/21 09:57:27;;;;;;;0.30;0.20;;;24.00;99.90;;;;;;5044726;28;20414;-80
2023/10/21 09:59:54;;;;;;;0.30;0.20;;;24.00;99.90;;;;;;5042437;28;20438;-79
2023/10/21 10:02:20;;;;;;;0.30;0.20;;;24.00;99.90;;;;;;5041531;28;20979;-78
2023/10/21 10:04:47;;;;;;;0.30;0.20;;;23.90;99.90;;;;;;5043909;28;20529;-79
2023/10/21 10:07:15;;;;;;;0.30;0.20;;;24.00;99.90;;;;;;5043021;28;20427;-78
2023/10/21 10:09:42;;;;;;;0.30;0.20;;;24.00;99.90;;;;;;5044715;28;20438;-80
2023/10/21 10:12:32;;;;;;;0.30;0.20;;;24.00;99.90;;;;;;5045659;28;20751;-80
2023/10/21 10:14:58;;;;;;;0.30;0.30;;;24.00;99.90;;;;;;5074129;28;20460;-79
2023/10/21 10:17:49;;;;;;;22.77;5.40;;;24.00;99.90;;;;;;5045859;28;20410;-80
2023/10/21 10:20:20;;;;;;;0.30;0.20;;;24.10;99.90;;;;;;5046720;28;20472;-80
2023/10/21 10:22:52;;;;;;;0.30;0.20;;;24.10;99.90;;;;;;5047660;28;20433;-78
2023/10/21 10:25:25;;;;;;;2.40;2.20;;;24.10;99.90;;;;;;5047174;28;20744;-78
2023/10/21 10:27:57;;;;;;;0.30;0.20;;;24.10;99.90;;;;;;5046438;28;20457;-79
2023/10/21 10:30:23;;;;;;;0.30;0.20;;;24.10;99.90;;;;;;5048650;28;20452;-80
2023/10/21 10:32:52;;;;;;;0.30;0.20;;;24.10;99.90;;;;;;5048178;28;20593;-80
2023/10/21 10:35:32;;;;;;;0.30;0.20;;;24.10;99.90;;;;;;5047850;28;20536;-80
2023/10/21 10:38:01;;;;;;;0.30;0.20;;;24.10;99.90;;;;;;5048502;28;20412;-80
2023/10/21 10:40:38;;;;;;;0.30;0.20;;;24.10;99.90;;;;;;5048336;28;20465;-79
2023/10/21 10:43:10;;;;;;;0.30;0.20;;;24.10;99.90;;;;;;5048666;28;20605;-78
2023/10/21 10:45:36;;;;;;;0.30;0.20;;;24.10;99.90;;;;;;5046675;28;20435;-80
2023/10/21 10:48:03;;;;;;;0.40;0.40;;;24.10;99.90;;;;;;5048155;28;20418;-80
2023/10/21 10:50:36;;;;;;;0.30;0.30;;;24.10;99.90;;;;;;5048256;28;20545;-78
2023/10/21 10:53:22;;;;;;;0.30;0.20;;;24.10;99.90;;;;;;5046651;28;20406;-78
2023/10/21 10:55:53;;;;;;;0.30;0.20;;;24.20;99.90;;;;;;5048178;28;20441;-80
2023/10/21 10:58:20;;;;;;;0.30;0.20;;;24.10;99.90;;;;;;5047776;28;20411;-78
2023/10/21 11:00:47;;;;;;;0.30;0.20;;;24.10;99.90;;;;;;5047626;28;20477;-80
2023/10/21 11:03:27;;;;;;;0.30;0.20;;;24.20;99.90;;;;;;5080087;28;20513;-80
2023/10/21 11:05:57;;;;;;;0.30;0.20;;;24.20;99.90;;;;;;5047383;28;20445;-78
2023/10/21 11:08:28;;;;;;;0.30;0.20;;;24.20;99.90;;;;;;5047072;28;20553;-80
2023/10/21 11:11:04;;;;;;;0.30;0.20;;;24.20;99.90;;;;;;5045823;28;20798;-79
2023/10/21 11:13:30;;;;;;;0.30;0.20;;;24.20;99.90;;;;;;5047598;28;20755;-78
2023/10/21 11:15:57;;;;;;;0.60;0.60;;;24.20;99.90;;;;;;5044656;28;20449;-80
2023/10/21 11:18:26;;;;;;;0.30;0.20;;;24.20;99.90;;;;;;5047882;28;20627;-80
2023/10/21 11:20:52;;;;;;;0.30;0.20;;;24.30;99.90;;;;;;5046105;28;20504;-78
2023/10/21 11:23:19;;;;;;;0.30;0.20;;;24.20;99.90;;;;;;5046102;28;20422;-79
2023/10/21 11:25:59;;;;;;;0.30;0.20;;;24.30;99.90;;;;;;5044680;28;20488;-78
2023/10/21 11:28:26;;;;;;;0.30;0.20;;;24.30;99.90;;;;;;5044585;28;20493;-79
2023/10/21 11:30:52;;;;;;;0.30;0.20;;;24.30;99.90;;;;;;5045950;28;20492;-77
2023/10/21 11:33:18;;;;;;;0.30;0.20;;;24.30;99.90;;;;;;5045871;28;20914;-79
2023/10/21 11:35:46;;;;;;;0.30;0.20;;;24.30;99.90;;;;;;5044628;28;20437;-78
2023/10/21 11:38:19;;;;;;;0.30;0.20;;;24.30;99.90;;;;;;5045919;28;20407;-77
2023/10/21 11:40:46;;;;;;;0.40;0.30;;;24.30;99.90;;;;;;5045900;28;20462;-77
2023/10/21 11:43:16;;;;;;;0.30;0.20;;;24.30;99.90;;;;;;5047065;28;20418;-78
2023/10/21 11:45:42;;;;;;;0.30;0.20;;;24.30;99.90;;;;;;5046969;28;20958;-78
2023/10/21 11:48:09;;;;;;;0.30;0.20;;;24.30;99.90;;;;;;5079293;28;20422;-76
2023/10/21 11:50:42;;;;;;;0.30;0.20;;;24.30;99.90;;;;;;5045360;28;20583;-76
2023/10/21 11:53:08;;;;;;;0.30;0.20;;;24.30;99.90;;;;;;5046945;28;20402;-78
2023/10/21 12:14:40;;;;;;;0.30;0.20;;;24.40;99.90;;;;;;5046967;28;20394;-76
2023/10/21 12:17:05;;;;;;;0.30;0.20;;;24.40;99.90;;;;;;5046497;28;20512;-77
2023/10/21 12:23:45;;;;;;;1.13;1.03;;;24.30;99.90;;;;;;5046298;28;20748;-77
2023/10/21 12:38:45;;;;;;;0.30;0.20;;;24.40;99.90;;;;;;5045013;28;20509;-77
2023/10/21 12:41:15;;;;;;;0.30;0.20;;;24.40;99.90;;;;;;5046106;28;20485;-78
2023/10/21 12:43:45;;;;;;;0.30;0.20;;;24.40;99.90;;;;;;5078290;28;20436;-79
2023/10/21 12:46:17;;;;;;;0.30;0.20;;;24.40;99.90;;;;;;5044145;28;20876;-78
2023/10/21 12:48:55;;;;;;;0.30;0.20;;;24.40;99.90;;;;;;5046121;28;20485;-76
2023/10/21 12:51:22;;;;;;;0.30;0.30;;;24.50;99.90;;;;;;5045692;28;20431;-79
2023/10/21 12:53:49;;;;;;;0.30;0.20;;;24.40;99.90;;;;;;5046112;28;20414;-77
2023/10/21 12:56:15;;;;;;;0.30;0.20;;;24.40;99.90;;;;;;5044446;28;20442;-77
2023/10/21 12:58:42;;;;;;;0.30;0.20;;;24.40;99.90;;;;;;5045913;28;20934;-77
2023/10/21 13:01:12;;;;;;;0.30;0.20;;;24.50;99.90;;;;;;5044486;28;20219;-77
2023/10/21 13:03:39;;;;;;;0.30;0.20;;;24.50;99.90;;;;;;5044456;28;20469;-78
2023/10/21 13:06:06;;;;;;;0.30;0.20;;;24.50;99.90;;;;;;5045909;28;20463;-77
2023/10/21 13:08:32;;;;;;;0.30;0.30;;;24.40;99.90;;;;;;5046052;28;20441;-79
2023/10/21 13:10:58;;;;;;;0.30;0.20;;;24.50;99.90;;;;;;5044586;28;20476;-79
2023/10/21 13:13:24;;;;;;;0.30;0.20;;;24.50;99.90;;;;;;5045546;28;20874;-79
2023/10/21 13:15:50;;;;;;;0.40;0.40;;;24.50;99.90;;;;;;5045900;28;20220;-76
2023/10/21 13:18:18;;;;;;;0.30;0.20;;;24.40;99.90;;;;;;5036865;28;20419;-79
2023/10/21 13:20:45;;;;;;;3.47;3.23;;;24.50;99.90;;;;;;5058374;28;20768;-77
2023/10/21 13:23:11;;;;;;;0.40;0.30;;;24.50;99.90;;;;;;5037955;28;20962;-77